Dunmor, Kentucky
Current Conditions -  °F | °C
As of 5:15 PM on Wednesday 17 Dec 2014 (Local Time) from K2I0 Reporting Station
Clear Clear  
Wind Chill: 26°   Ceiling: Unl
Heat Index: 33°   Visibility: 10mi
Dew Point: 28°   Wind: 7mph
Humidity: 82%   Direction: 40°NE
Pressure: 30.29"   Gusts: NA
Location:  37.07°N, 87°W
Report Text: K2I0 172315Z AUTO 04006KT 10SM CLR 00/M02 A3029 RMK AO2 T00041023
Loading
Personal Weather Stations






























Interactive Weather Map New forecast layout! Learn more

10-Day Weather Forecast

Advertisements
Track Severe Weather on mobile